createdAt,value
2017-03-02T00:00:58.356Z,99.99
2017-03-02T00:01:58.410Z,99.99
2017-03-02T00:02:58.407Z,99.99
2017-03-02T00:03:58.434Z,99.99
2017-03-02T00:04:58.467Z,99.99
2017-03-02T00:05:58.466Z,99.99
2017-03-02T00:06:58.500Z,99.99
2017-03-02T00:07:58.562Z,99.99
2017-03-02T00:08:58.680Z,99.99
2017-03-02T00:09:58.683Z,99.99
2017-03-02T00:10:58.610Z,99.99
2017-03-02T00:11:58.633Z,99.99
2017-03-02T00:12:58.663Z,99.99
2017-03-02T00:13:58.683Z,99.99
2017-03-02T00:14:58.720Z,99.99
2017-03-02T00:15:58.760Z,99.99
2017-03-02T00:16:58.763Z,99.99
2017-03-02T00:17:58.766Z,99.99
2017-03-02T00:18:58.813Z,99.99
2017-03-02T00:19:58.840Z,99.99
2017-03-02T00:20:58.861Z,99.99
2017-03-02T00:21:58.877Z,99.99
2017-03-02T00:22:58.915Z,99.99
2017-03-02T00:23:58.940Z,99.99
2017-03-02T00:24:58.965Z,99.99
2017-03-02T00:25:58.990Z,99.99
2017-03-02T00:26:59.019Z,99.99
2017-03-02T00:27:59.045Z,99.99
2017-03-02T00:28:59.069Z,99.99
2017-03-02T00:29:59.102Z,99.99
2017-03-02T00:30:59.124Z,99.99
2017-03-02T00:31:59.144Z,99.99
2017-03-02T00:32:59.177Z,99.99
2017-03-02T00:33:59.194Z,99.99
2017-03-02T00:34:59.202Z,99.99
2017-03-02T00:35:59.350Z,99.99
2017-03-02T00:36:59.277Z,99.99
2017-03-02T00:37:59.296Z,99.99
2017-03-02T00:38:59.323Z,99.99
2017-03-02T00:39:59.351Z,99.99
2017-03-02T00:40:59.371Z,99.99
2017-03-02T00:41:59.396Z,99.99
2017-03-02T00:42:59.427Z,99.99
2017-03-02T00:43:59.452Z,99.99
2017-03-02T00:44:59.463Z,99.99
2017-03-02T00:45:59.501Z,99.99
2017-03-02T00:46:59.527Z,99.99
2017-03-02T00:47:59.655Z,99.99
2017-03-02T00:48:59.561Z,99.99
2017-03-02T00:49:59.604Z,99.99
2017-03-02T00:50:59.619Z,99.99
2017-03-02T00:51:59.657Z,99.99
2017-03-02T00:52:59.685Z,99.99
2017-03-02T00:53:59.707Z,99.99
2017-03-02T00:54:59.713Z,99.99
2017-03-02T00:55:59.759Z,99.99
2017-03-02T00:56:59.766Z,99.99
2017-03-02T00:57:59.811Z,99.99
2017-03-02T00:58:59.820Z,99.99
2017-03-02T00:59:59.863Z,99.99
2017-03-02T01:00:59.868Z,99.99
2017-03-02T01:01:59.922Z,99.99
2017-03-02T01:02:59.938Z,99.99
2017-03-02T01:03:59.963Z,99.99
2017-03-02T01:04:59.988Z,99.99
2017-03-02T01:06:00.015Z,99.99
2017-03-02T01:07:00.032Z,99.99
2017-03-02T01:08:00.087Z,99.99
2017-03-02T01:09:00.092Z,99.99
2017-03-02T01:10:00.099Z,99.99
2017-03-02T01:11:00.126Z,99.99
2017-03-02T01:12:00.170Z,99.99
2017-03-02T01:13:00.183Z,99.99
2017-03-02T01:14:00.224Z,99.99
2017-03-02T01:15:00.243Z,99.99
2017-03-02T01:16:00.274Z,99.99
2017-03-02T01:17:00.283Z,99.99
2017-03-02T01:18:00.325Z,99.99
2017-03-02T01:19:00.353Z,99.99
2017-03-02T01:20:00.371Z,99.99
2017-03-02T01:21:00.382Z,99.99
2017-03-02T01:22:00.428Z,99.99
2017-03-02T01:23:45.286Z,99.99
2017-03-02T01:24:26.279Z,99.99
2017-03-02T01:25:26.291Z,99.99
2017-03-02T01:26:26.320Z,99.99
2017-03-02T01:27:26.349Z,99.99
2017-03-02T01:28:26.399Z,99.99
2017-03-02T01:29:26.400Z,99.99
2017-03-02T01:30:26.425Z,99.99
2017-03-02T01:31:26.452Z,99.99
2017-03-02T01:32:26.504Z,99.99
2017-03-02T01:33:26.493Z,99.99
2017-03-02T01:34:26.529Z,99.99
2017-03-02T01:35:26.579Z,99.99
2017-03-02T01:36:26.573Z,99.99
2017-03-02T01:37:26.605Z,99.99
2017-03-02T01:38:26.623Z,99.99
2017-03-02T01:39:26.682Z,99.99
2017-03-02T01:40:26.712Z,99.99
2017-03-02T01:41:26.712Z,99.99
2017-03-02T01:42:26.738Z,99.99
2017-03-02T01:43:26.754Z,99.99
2017-03-02T01:44:26.914Z,99.99
2017-03-02T01:45:26.812Z,99.99
2017-03-02T01:46:26.841Z,99.99
2017-03-02T01:47:26.868Z,99.99
2017-03-02T01:48:26.912Z,99.99
2017-03-02T01:49:26.917Z,99.99
2017-03-02T01:50:26.942Z,99.99
2017-03-02T01:51:28.167Z,99.99
2017-03-02T01:52:26.986Z,99.99
2017-03-02T01:53:27.045Z,99.99
2017-03-02T01:54:27.047Z,99.99
2017-03-02T01:55:27.097Z,99.99
2017-03-02T01:56:27.096Z,99.99
2017-03-02T01:57:27.122Z,99.99
2017-03-02T01:58:27.150Z,99.99
2017-03-02T01:59:27.203Z,99.99
2017-03-02T02:00:27.191Z,99.99
2017-03-02T02:01:27.229Z,99.99
2017-03-02T02:02:27.253Z,99.99
2017-03-02T02:03:27.305Z,99.99
2017-03-02T02:04:27.296Z,99.99
2017-03-02T02:05:27.326Z,99.99
2017-03-02T02:06:27.356Z,99.99
2017-03-02T02:07:27.410Z,99.99
2017-03-02T02:08:27.406Z,99.99
2017-03-02T02:09:27.431Z,99.99
2017-03-02T02:10:27.487Z,99.99
2017-03-02T02:11:27.512Z,99.99
2017-03-02T02:12:27.514Z,99.99
2017-03-02T02:13:27.528Z,99.99
2017-03-02T02:14:27.567Z,99.99
2017-03-02T02:15:27.586Z,99.99
2017-03-02T02:16:27.641Z,99.99
2017-03-02T02:17:27.642Z,99.99
2017-03-02T02:18:27.670Z,99.99
2017-03-02T02:19:27.689Z,99.99
2017-03-02T02:20:27.746Z,99.99
2017-03-02T02:21:27.747Z,99.99
2017-03-02T02:22:27.798Z,99.99
2017-03-02T02:23:27.793Z,99.99
2017-03-02T02:24:27.852Z,99.99
2017-03-02T02:25:27.852Z,99.99
2017-03-02T02:26:27.904Z,99.99
2017-03-02T02:27:27.899Z,99.99
2017-03-02T02:28:27.930Z,99.99
2017-03-02T02:29:27.954Z,99.99
2017-03-02T02:30:28.007Z,99.99
2017-03-02T02:31:28.003Z,99.99
2017-03-02T02:32:28.061Z,99.99
2017-03-02T02:33:28.088Z,99.99
2017-03-02T02:34:28.083Z,99.99
2017-03-02T02:35:28.115Z,99.99
2017-03-02T02:36:28.137Z,99.99
2017-03-02T02:37:28.164Z,99.99
2017-03-02T02:38:28.216Z,99.99
2017-03-02T02:39:28.216Z,99.99
2017-03-02T02:40:28.244Z,99.99
2017-03-02T02:41:28.271Z,99.99
2017-03-02T02:42:28.293Z,99.99
2017-03-02T02:43:28.322Z,99.99
2017-03-02T02:44:28.374Z,99.99
2017-03-02T02:45:28.374Z,99.99
2017-03-02T02:46:28.395Z,99.99
2017-03-02T02:47:28.454Z,99.99
2017-03-02T02:48:28.453Z,99.99
2017-03-02T02:49:28.508Z,99.99
2017-03-02T02:50:28.502Z,99.99
2017-03-02T02:51:28.532Z,99.99
2017-03-02T02:52:28.557Z,99.99
2017-03-02T02:53:28.609Z,99.99
2017-03-02T02:54:28.605Z,99.99
2017-03-02T02:55:28.639Z,99.99
2017-03-02T02:56:28.660Z,99.99
2017-03-02T02:57:28.718Z,99.99
2017-03-02T02:58:28.707Z,99.99
2017-03-02T02:59:28.741Z,99.99
2017-03-02T03:00:28.770Z,99.99
2017-03-02T03:01:28.890Z,99.99
2017-03-02T03:02:28.821Z,99.99
2017-03-02T03:03:28.841Z,99.99
2017-03-02T03:04:28.868Z,99.99
2017-03-02T03:05:28.931Z,99.99
2017-03-02T03:06:28.928Z,99.99
2017-03-02T03:07:28.959Z,99.99
2017-03-02T03:08:28.971Z,99.99
2017-03-02T03:09:29.011Z,99.99
2017-03-02T03:10:29.035Z,99.99
2017-03-02T03:11:29.084Z,99.99
2017-03-02T03:12:29.088Z,99.99
2017-03-02T03:13:29.141Z,99.99
2017-03-02T03:14:29.137Z,99.99
2017-03-02T03:15:29.158Z,99.99
2017-03-02T03:16:29.197Z,99.99
2017-03-02T03:17:29.244Z,99.99
2017-03-02T03:18:29.240Z,99.99
2017-03-02T03:19:29.300Z,99.99
2017-03-02T03:20:29.300Z,99.99
2017-03-02T03:21:29.354Z,99.99
2017-03-02T03:22:29.345Z,99.99
2017-03-02T03:23:29.379Z,99.99
2017-03-02T03:24:29.407Z,99.99
2017-03-02T03:25:29.456Z,99.99
2017-03-02T03:26:29.485Z,99.99
2017-03-02T03:27:29.487Z,99.99
2017-03-02T03:28:29.538Z,99.99
2017-03-02T03:29:29.538Z,99.99
2017-03-02T03:30:29.565Z,99.99
2017-03-02T03:31:29.583Z,99.99
2017-03-02T03:32:29.643Z,99.99
2017-03-02T03:33:29.639Z,99.99
2017-03-02T03:34:29.670Z,99.99
2017-03-02T03:35:29.699Z,99.99
2017-03-02T03:36:29.750Z,99.99
2017-03-02T03:37:29.747Z,99.99
2017-03-02T03:38:29.779Z,99.99
2017-03-02T03:39:29.804Z,99.99
2017-03-02T03:40:29.859Z,99.99
2017-03-02T03:41:29.859Z,99.99
2017-03-02T03:42:29.884Z,99.99
2017-03-02T03:43:29.934Z,99.99
2017-03-02T03:44:29.937Z,99.99
2017-03-02T03:45:29.963Z,99.99
2017-03-02T03:46:29.991Z,99.99
2017-03-02T03:47:30.045Z,99.99
2017-03-02T03:48:30.043Z,99.99
2017-03-02T03:49:30.072Z,99.99
2017-03-02T03:50:30.093Z,99.99
2017-03-02T03:51:30.150Z,99.99
2017-03-02T03:52:30.142Z,99.99
2017-03-02T03:53:30.202Z,99.99
2017-03-02T03:54:30.200Z,99.99
2017-03-02T03:55:30.254Z,99.99
2017-03-02T03:56:30.256Z,99.99
2017-03-02T03:57:30.310Z,99.99
2017-03-02T03:58:30.337Z,99.99
2017-03-02T03:59:30.331Z,99.99
2017-03-02T04:00:30.363Z,99.99
2017-03-02T04:01:30.381Z,99.99
2017-03-02T04:02:30.423Z,99.99
2017-03-02T04:03:30.444Z,99.99
2017-03-02T04:04:30.469Z,99.99
2017-03-02T04:05:30.497Z,99.99
2017-03-02T04:06:30.549Z,99.99
2017-03-02T04:07:30.545Z,99.99
2017-03-02T04:08:30.602Z,99.99
2017-03-02T04:09:30.600Z,99.99
2017-03-02T04:10:30.658Z,99.99
2017-03-02T04:11:30.682Z,99.99
2017-03-02T04:12:30.681Z,99.99
2017-03-02T04:13:30.735Z,99.99
2017-03-02T04:14:30.736Z,99.99
2017-03-02T04:15:30.789Z,99.99
2017-03-02T04:16:30.813Z,99.99
2017-03-02T04:17:30.841Z,99.99
2017-03-02T04:18:30.837Z,99.99
2017-03-02T04:19:30.868Z,99.99
2017-03-02T04:20:30.919Z,99.99
2017-03-02T04:21:30.947Z,99.99
2017-03-02T04:22:30.940Z,99.99
2017-03-02T04:23:30.975Z,99.99
2017-03-02T04:24:31.024Z,99.99
2017-03-02T04:25:31.054Z,99.99
2017-03-02T04:26:31.057Z,99.99
2017-03-02T04:27:31.079Z,99.99
2017-03-02T04:28:31.134Z,99.99
2017-03-02T04:29:31.153Z,99.99
2017-03-02T04:30:31.161Z,99.99
2017-03-02T04:31:31.187Z,99.99
2017-03-02T04:32:31.240Z,99.99
2017-03-02T04:33:31.234Z,99.99
2017-03-02T04:34:31.264Z,99.99
2017-03-02T04:35:31.292Z,99.99
2017-03-02T04:36:31.347Z,99.99
2017-03-02T04:37:31.335Z,99.99
2017-03-02T04:38:31.379Z,99.99
2017-03-02T04:39:31.424Z,99.99
2017-03-02T04:40:31.453Z,99.99
2017-03-02T04:41:31.447Z,99.99
2017-03-02T04:42:31.656Z,99.99
2017-03-02T04:43:31.498Z,99.99
2017-03-02T04:44:31.559Z,99.99
2017-03-02T04:45:31.560Z,99.99
2017-03-02T04:46:31.614Z,99.99
2017-03-02T04:47:31.618Z,99.99
2017-03-02T04:48:31.663Z,99.99
2017-03-02T04:49:31.694Z,99.99
2017-03-02T04:50:31.684Z,99.99
2017-03-02T04:51:31.724Z,99.99
2017-03-02T04:52:31.746Z,99.99
2017-03-02T04:53:31.798Z,99.99
2017-03-02T04:54:31.801Z,99.99
2017-03-02T04:55:31.853Z,99.99
2017-03-02T04:56:31.847Z,99.99
2017-03-02T04:57:31.910Z,99.99
2017-03-02T04:58:31.908Z,99.99
2017-03-02T04:59:31.960Z,99.99
2017-03-02T05:00:31.960Z,99.99
2017-03-02T05:01:31.987Z,99.99
2017-03-02T05:02:32.019Z,99.99
2017-03-02T05:03:32.042Z,99.99
2017-03-02T05:04:32.073Z,99.99
2017-03-02T05:05:32.091Z,99.99
2017-03-02T05:06:32.118Z,99.99
2017-03-02T05:07:32.147Z,99.99
2017-03-02T05:08:32.171Z,99.99
2017-03-02T05:09:32.191Z,99.99
2017-03-02T05:10:32.227Z,99.99
2017-03-02T05:11:32.244Z,99.99
2017-03-02T05:12:32.276Z,99.99
2017-03-02T05:13:32.304Z,99.99
2017-03-02T05:14:32.332Z,99.99
2017-03-02T05:15:32.355Z,99.99
2017-03-02T05:16:32.388Z,99.99
2017-03-02T05:17:32.414Z,99.99
2017-03-02T05:18:32.443Z,99.99
2017-03-02T05:19:32.464Z,99.99
2017-03-02T05:20:32.490Z,99.99
2017-03-02T05:21:32.517Z,99.99
2017-03-02T05:22:32.550Z,99.99
2017-03-02T05:23:32.574Z,99.99
2017-03-02T05:24:32.596Z,99.99
2017-03-02T05:25:32.626Z,99.99
2017-03-02T05:26:32.650Z,99.99
2017-03-02T05:27:32.678Z,99.99
2017-03-02T05:28:32.707Z,99.99
2017-03-02T05:29:32.737Z,99.99
2017-03-02T05:30:32.744Z,99.99
2017-03-02T05:31:32.787Z,99.99
2017-03-02T05:32:32.799Z,99.99
2017-03-02T05:33:32.842Z,99.99
2017-03-02T05:34:32.868Z,99.99
2017-03-02T05:35:32.894Z,99.99
2017-03-02T05:36:32.923Z,99.99
2017-03-02T05:37:32.950Z,99.99
2017-03-02T05:38:32.975Z,99.99
2017-03-02T05:39:32.982Z,99.99
2017-03-02T05:40:33.031Z,99.99
2017-03-02T05:41:33.057Z,99.99
2017-03-02T05:42:33.072Z,99.99
2017-03-02T05:43:33.117Z,99.99
2017-03-02T05:44:33.140Z,99.99
2017-03-02T05:45:33.165Z,99.99
2017-03-02T05:46:33.188Z,99.99
2017-03-02T05:47:33.225Z,99.99
2017-03-02T05:48:33.247Z,99.99
2017-03-02T05:49:33.272Z,99.99
2017-03-02T05:50:33.297Z,99.99
2017-03-02T05:51:33.314Z,99.99
2017-03-02T05:52:33.349Z,99.99
2017-03-02T05:53:33.364Z,99.99
2017-03-02T05:54:33.405Z,99.99
2017-03-02T05:55:33.437Z,99.99
2017-03-02T05:56:33.445Z,99.99
2017-03-02T05:57:33.487Z,99.99
2017-03-02T05:58:33.516Z,99.99
2017-03-02T05:59:33.543Z,99.99
2017-03-02T06:00:33.599Z,99.99
2017-03-02T06:01:33.597Z,99.99
2017-03-02T06:02:33.621Z,99.99
2017-03-02T06:03:33.651Z,99.99
2017-03-02T06:04:33.677Z,99.99
2017-03-02T06:05:33.702Z,99.99
2017-03-02T06:06:33.731Z,99.99
2017-03-02T06:07:33.756Z,99.99
2017-03-02T06:08:33.786Z,99.99
2017-03-02T06:09:33.814Z,99.99
2017-03-02T06:10:33.841Z,99.99
2017-03-02T06:11:33.858Z,99.99
2017-03-02T06:12:33.897Z,99.99
2017-03-02T06:13:33.915Z,99.99
2017-03-02T06:14:33.950Z,99.99
2017-03-02T06:15:33.975Z,99.99
2017-03-02T06:16:34.002Z,99.99
2017-03-02T06:17:34.008Z,99.99
2017-03-02T06:18:34.060Z,99.99
2017-03-02T06:19:34.083Z,99.99
2017-03-02T06:20:34.110Z,99.99
2017-03-02T06:21:34.140Z,99.99
2017-03-02T06:22:34.162Z,99.99
2017-03-02T06:23:34.191Z,99.99
2017-03-02T06:24:34.214Z,99.99
2017-03-02T06:25:34.248Z,99.99
2017-03-02T06:26:34.256Z,99.99
2017-03-02T06:27:34.303Z,99.99
2017-03-02T06:28:34.324Z,99.99
2017-03-02T06:29:34.355Z,99.99
2017-03-02T06:30:34.381Z,99.99
2017-03-02T06:31:34.391Z,99.99
2017-03-02T06:32:34.441Z,99.99
2017-03-02T06:33:34.469Z,99.99
2017-03-02T06:34:34.563Z,99.99
2017-03-02T06:35:34.523Z,99.99
2017-03-02T06:36:34.534Z,99.99
2017-03-02T06:37:35.183Z,99.99
2017-03-02T06:38:35.205Z,99.99
2017-03-02T06:39:35.235Z,99.99
2017-03-02T06:40:35.257Z,99.99
2017-03-02T06:41:35.292Z,99.99
2017-03-02T06:42:35.319Z,99.99
2017-03-02T06:43:35.346Z,99.99
2017-03-02T06:44:35.385Z,99.99
2017-03-02T06:45:35.402Z,99.99
2017-03-02T06:46:35.432Z,99.99
2017-03-02T06:47:35.465Z,99.99
2017-03-02T06:48:35.499Z,99.99
2017-03-02T06:49:35.509Z,99.99
2017-03-02T06:50:35.553Z,99.99
2017-03-02T06:51:35.552Z,99.99
2017-03-02T06:52:35.589Z,99.99
2017-03-02T06:53:35.634Z,99.99
2017-03-02T06:54:35.666Z,99.99
2017-03-02T06:55:35.683Z,99.99
2017-03-02T06:56:35.704Z,99.99
2017-03-02T06:57:35.744Z,99.99
2017-03-02T06:58:35.765Z,99.99
2017-03-02T06:59:35.802Z,99.99
2017-03-02T07:00:35.822Z,99.99
2017-03-02T07:01:35.856Z,99.99
2017-03-02T07:02:35.870Z,99.99
2017-03-02T07:03:35.914Z,99.99
2017-03-02T07:04:35.932Z,99.99
2017-03-02T07:05:35.957Z,99.99
2017-03-02T07:06:35.967Z,99.99
2017-03-02T07:07:35.992Z,99.99
2017-03-02T07:08:36.040Z,99.99
2017-03-02T07:09:36.099Z,99.99
2017-03-02T07:10:36.078Z,99.99
2017-03-02T07:11:36.136Z,99.99
2017-03-02T07:12:36.157Z,99.99
2017-03-02T07:13:36.167Z,99.99
2017-03-02T07:14:36.211Z,99.99
2017-03-02T07:15:36.237Z,99.99
2017-03-02T07:16:36.257Z,99.99
2017-03-02T07:17:36.310Z,99.99
2017-03-02T07:18:36.335Z,99.99
2017-03-02T07:19:36.356Z,99.99
2017-03-02T07:20:36.403Z,99.99
2017-03-02T07:21:36.392Z,99.99
2017-03-02T07:22:36.438Z,99.99
2017-03-02T07:23:36.462Z,99.99
2017-03-02T07:24:36.494Z,99.99
2017-03-02T07:25:36.534Z,99.99
2017-03-02T07:26:36.561Z,99.99
2017-03-02T07:27:36.556Z,99.99
2017-03-02T07:28:36.628Z,99.99
2017-03-02T07:29:36.637Z,99.99
2017-03-02T07:30:36.669Z,99.99
2017-03-02T07:31:36.706Z,99.99
2017-03-02T07:32:36.721Z,99.99
2017-03-02T07:33:36.748Z,99.99
2017-03-02T07:34:36.780Z,99.99
2017-03-02T07:35:36.807Z,99.99
2017-03-02T07:36:36.838Z,99.99
2017-03-02T07:37:36.868Z,99.99
2017-03-02T07:38:36.876Z,99.99
2017-03-02T07:39:36.901Z,99.99
2017-03-02T07:40:36.948Z,99.99
2017-03-02T07:41:36.955Z,99.99
2017-03-02T07:42:37.008Z,99.99
2017-03-02T07:43:37.034Z,99.99
2017-03-02T07:44:37.072Z,99.99
2017-03-02T07:45:37.070Z,99.99
2017-03-02T07:46:37.107Z,99.99
2017-03-02T07:47:37.166Z,99.99
2017-03-02T07:48:37.210Z,99.99
2017-03-02T07:49:37.208Z,99.99
2017-03-02T07:50:37.231Z,99.99
2017-03-02T07:51:37.233Z,99.99
2017-03-02T07:52:37.276Z,99.99
2017-03-02T07:53:37.338Z,99.99
2017-03-02T07:54:37.361Z,99.99
2017-03-02T07:55:37.381Z,99.99
2017-03-02T07:56:37.408Z,99.99
2017-03-02T07:57:37.442Z,99.99
2017-03-02T07:58:37.467Z,99.99
2017-03-02T07:59:37.489Z,99.99
2017-03-02T08:00:37.513Z,99.99
2017-03-02T08:01:37.552Z,99.99
2017-03-02T08:02:37.566Z,99.99
2017-03-02T08:03:37.614Z,99.99
2017-03-02T08:04:37.653Z,99.99
2017-03-02T08:05:37.667Z,99.99
2017-03-02T08:06:37.686Z,99.99
2017-03-02T08:07:37.703Z,99.99
2017-03-02T08:08:37.744Z,99.99
2017-03-02T08:09:37.772Z,99.99
2017-03-02T08:10:37.795Z,99.99
2017-03-02T08:11:37.827Z,99.99
2017-03-02T08:12:37.865Z,99.99
2017-03-02T08:13:37.861Z,99.99
2017-03-02T08:14:37.919Z,99.99
2017-03-02T08:15:37.921Z,99.99
2017-03-02T08:16:37.969Z,99.99
2017-03-02T08:17:38.010Z,99.99
2017-03-02T08:18:38.016Z,99.99
2017-03-02T08:19:38.054Z,99.99
2017-03-02T08:20:38.076Z,99.99
2017-03-02T08:21:38.111Z,99.99
2017-03-02T08:22:38.132Z,99.99
2017-03-02T08:23:38.178Z,99.99
2017-03-02T08:24:38.165Z,99.99
2017-03-02T08:25:38.221Z,99.99
2017-03-02T08:26:38.248Z,99.99
2017-03-02T08:27:38.272Z,99.99
2017-03-02T08:28:38.301Z,99.99
2017-03-02T08:29:38.345Z,99.99
2017-03-02T08:30:38.355Z,99.99
2017-03-02T08:31:38.382Z,99.99
2017-03-02T08:32:38.403Z,99.99
2017-03-02T08:33:38.432Z,99.99
2017-03-02T08:34:38.472Z,99.99
2017-03-02T08:35:38.469Z,99.99
2017-03-02T08:36:38.520Z,99.99
2017-03-02T08:37:38.538Z,99.99
2017-03-02T08:38:38.553Z,99.99
2017-03-02T08:39:38.576Z,99.99
2017-03-02T08:40:38.616Z,99.99
2017-03-02T08:41:38.648Z,99.99
2017-03-02T08:42:38.673Z,99.99
2017-03-02T08:43:38.701Z,99.99
2017-03-02T08:44:38.729Z,99.99
2017-03-02T08:45:38.779Z,99.99
2017-03-02T08:46:38.761Z,99.99
2017-03-02T08:47:38.812Z,99.99
2017-03-02T08:48:38.853Z,99.99
2017-03-02T08:49:38.850Z,99.99
2017-03-02T08:50:38.894Z,99.99
2017-03-02T08:51:38.919Z,99.99
2017-03-02T08:52:38.960Z,99.99
2017-03-02T08:53:38.973Z,99.99
2017-03-02T08:54:39.003Z,99.99
2017-03-02T08:55:39.020Z,99.99
2017-03-02T08:56:39.065Z,99.99
2017-03-02T08:57:39.055Z,99.99
2017-03-02T08:58:39.108Z,99.99
2017-03-02T08:59:39.142Z,99.99
2017-03-02T09:00:39.167Z,99.99
2017-03-02T09:01:39.203Z,99.99
2017-03-02T09:02:39.199Z,99.99
2017-03-02T09:03:39.253Z,99.99
2017-03-02T09:04:39.261Z,99.99
2017-03-02T09:05:39.306Z,99.99
2017-03-02T09:06:39.327Z,99.99
2017-03-02T09:07:39.363Z,99.99
2017-03-02T09:08:39.378Z,99.99
2017-03-02T09:09:39.424Z,99.99
2017-03-02T09:10:39.449Z,99.99
2017-03-02T09:11:39.471Z,99.99
2017-03-02T09:12:39.475Z,99.99
2017-03-02T09:13:39.522Z,99.99
2017-03-02T09:14:39.551Z,99.99
2017-03-02T09:15:39.582Z,99.99
2017-03-02T09:16:39.616Z,99.99
2017-03-02T09:17:39.642Z,99.99
2017-03-02T09:18:39.669Z,99.99
2017-03-02T09:19:39.674Z,99.99
2017-03-02T09:20:39.735Z,99.99
2017-03-02T09:21:39.752Z,99.99
2017-03-02T09:22:39.765Z,99.99
2017-03-02T09:23:39.797Z,99.99
2017-03-02T09:24:39.837Z,99.99
2017-03-02T09:25:39.979Z,99.99
2017-03-02T09:26:39.876Z,99.99
2017-03-02T09:27:39.926Z,99.99
2017-03-02T09:28:39.953Z,99.99
2017-03-02T09:29:39.980Z,99.99
2017-03-02T09:30:40.018Z,99.99
2017-03-02T09:31:40.021Z,99.99
2017-03-02T09:32:40.075Z,99.99
2017-03-02T09:33:40.071Z,99.99
2017-03-02T09:34:40.114Z,99.99
2017-03-02T09:35:40.166Z,99.99
2017-03-02T09:36:40.184Z,99.99
2017-03-02T09:37:40.209Z,99.99
2017-03-02T09:38:40.233Z,99.99
2017-03-02T09:39:40.269Z,99.99
2017-03-02T09:40:40.277Z,99.99
2017-03-02T09:41:40.319Z,99.99
2017-03-02T09:42:40.368Z,99.99
2017-03-02T09:43:40.386Z,99.99
2017-03-02T09:44:40.418Z,99.99
2017-03-02T09:45:40.430Z,99.99
2017-03-02T09:46:40.466Z,99.99
2017-03-02T09:47:40.478Z,99.99
2017-03-02T09:48:40.519Z,99.99
2017-03-02T09:49:40.565Z,99.99
2017-03-02T09:50:40.583Z,99.99
2017-03-02T09:51:40.608Z,99.73
2017-03-02T09:52:40.642Z,98.79
2017-03-02T09:53:40.663Z,97.74
2017-03-02T09:54:40.675Z,97.74
2017-03-02T09:55:40.720Z,97.17
2017-03-02T09:56:40.742Z,96.79
2017-03-02T09:57:40.754Z,96.98
2017-03-02T09:58:40.818Z,96.79
2017-03-02T09:59:40.836Z,95.75
2017-03-02T10:00:40.859Z,95.46
2017-03-02T10:01:40.871Z,95.75
2017-03-02T10:02:40.914Z,95.46
2017-03-02T10:03:40.945Z,95.36
2017-03-02T10:04:40.959Z,94.32
2017-03-02T10:05:40.994Z,93.7
2017-03-02T10:06:41.031Z,92.66
2017-03-02T10:07:41.044Z,92.37
2017-03-02T10:08:41.091Z,90.89
2017-03-02T10:09:41.123Z,89.85
2017-03-02T10:10:41.157Z,89.75
2017-03-02T10:11:41.294Z,88.18
2017-03-02T10:12:41.191Z,87.04
2017-03-02T10:13:41.236Z,86.38
2017-03-02T10:14:41.264Z,85.61
2017-03-02T10:15:41.305Z,85.52
2017-03-02T10:16:41.684Z,85.24
2017-03-02T10:17:41.373Z,84.38
2017-03-02T10:18:41.369Z,84.24
2017-03-02T10:19:41.392Z,84.72
2017-03-02T10:20:41.465Z,84.05
2017-03-02T10:21:41.465Z,84.43
2017-03-02T10:22:41.502Z,84.91
2017-03-02T10:23:41.505Z,84.1
2017-03-02T10:24:41.551Z,84.29
2017-03-02T10:25:41.586Z,84.77
2017-03-02T10:26:41.582Z,85.34
2017-03-02T10:27:41.644Z,85.72
2017-03-02T10:28:41.673Z,86.67
2017-03-02T10:29:41.691Z,85.43
2017-03-02T10:30:41.729Z,85.86
2017-03-02T10:31:41.762Z,83.58
2017-03-02T10:32:41.791Z,83.29
2017-03-02T10:33:41.802Z,82.76
2017-03-02T10:34:41.849Z,82.48
2017-03-02T10:35:41.875Z,82
2017-03-02T10:36:41.917Z,81.29
2017-03-02T10:37:41.930Z,81.43
2017-03-02T10:38:41.950Z,82.15
2017-03-02T10:39:42.000Z,81.67
2017-03-02T10:40:42.026Z,81.86
2017-03-02T10:41:42.050Z,81.71
2017-03-02T10:42:42.097Z,80.95
2017-03-02T10:43:42.100Z,80.33
2017-03-02T10:44:42.157Z,79.85
2017-03-02T10:45:42.172Z,78.14
2017-03-02T10:46:42.207Z,77.85
2017-03-02T10:47:42.437Z,78.14
2017-03-02T10:48:42.265Z,79.28
2017-03-02T10:49:42.295Z,79.09
2017-03-02T10:50:42.305Z,79.19
2017-03-02T10:51:42.359Z,80.42
2017-03-02T10:52:42.381Z,80.38
2017-03-02T10:53:42.392Z,80.95
2017-03-02T10:54:42.436Z,81.52
2017-03-02T10:55:42.465Z,82.62
2017-03-02T10:56:42.498Z,85.1
2017-03-02T10:57:42.508Z,85.57
2017-03-02T10:58:42.555Z,87.24
2017-03-02T10:59:42.588Z,88
2017-03-02T11:00:42.603Z,89.23
2017-03-02T11:01:42.657Z,89.14
2017-03-02T11:02:43.032Z,89.8
2017-03-02T11:03:42.724Z,89.57
2017-03-02T11:04:42.742Z,89.86
2017-03-02T11:05:42.757Z,91.38
2017-03-02T11:06:42.795Z,93.56
2017-03-02T11:07:42.930Z,94.74
2017-03-02T11:08:42.851Z,95.31
2017-03-02T11:09:42.899Z,94.56
2017-03-02T11:10:42.912Z,95.79
2017-03-02T11:11:42.939Z,96.55
2017-03-02T11:12:42.963Z,95.7
2017-03-02T11:13:43.002Z,95.22
2017-03-02T11:14:43.027Z,95.12
2017-03-02T11:15:43.046Z,95.22
2017-03-02T11:16:43.099Z,94.84
2017-03-02T11:17:43.112Z,95.22
2017-03-02T11:18:43.149Z,95.22
2017-03-02T11:19:43.178Z,95.7
2017-03-02T11:20:43.207Z,95.22
2017-03-02T11:21:43.235Z,95.7
2017-03-02T11:22:43.254Z,95.12
2017-03-02T11:23:43.303Z,95.51
2017-03-02T11:24:43.294Z,95.31
2017-03-02T11:25:43.341Z,94.84
2017-03-02T11:26:43.355Z,95.89
2017-03-02T11:27:43.395Z,95.89
2017-03-02T11:28:43.597Z,96.17
2017-03-02T11:29:43.447Z,95.79
2017-03-02T11:30:43.487Z,94.84
2017-03-02T11:31:43.505Z,94.46
2017-03-02T11:32:43.533Z,95.12
2017-03-02T11:33:43.588Z,95.31
2017-03-02T11:34:43.599Z,94.27
2017-03-02T11:35:43.812Z,94.74
2017-03-02T11:36:43.667Z,94.27
2017-03-02T11:37:43.676Z,94.08
2017-03-02T11:38:43.704Z,94.56
2017-03-02T11:39:43.743Z,94.74
2017-03-02T11:40:43.762Z,94.42
2017-03-02T11:41:43.787Z,93.27
2017-03-02T11:42:43.833Z,92.32
2017-03-02T11:43:43.847Z,90.14
2017-03-02T11:44:43.904Z,89.67
2017-03-02T11:45:43.910Z,90.42
2017-03-02T11:46:43.911Z,89.47
2017-03-02T11:47:43.961Z,88.9
2017-03-02T11:48:43.991Z,88.57
2017-03-02T11:49:44.011Z,87.52
2017-03-02T11:50:44.039Z,87.05
2017-03-02T11:51:44.074Z,86.86
2017-03-02T11:52:44.099Z,86
2017-03-02T11:53:44.132Z,85.53
2017-03-02T11:54:44.154Z,84.77
2017-03-02T11:55:44.186Z,84.29
2017-03-02T11:56:44.216Z,84.29
2017-03-02T11:57:44.237Z,84.95
2017-03-02T11:58:44.425Z,85.34
2017-03-02T11:59:44.297Z,84.86
2017-03-02T12:00:44.333Z,83.34
2017-03-02T12:01:44.371Z,83.15
2017-03-02T12:02:44.396Z,83.82
2017-03-02T12:03:44.521Z,83.82
2017-03-02T12:04:44.436Z,84.1
2017-03-02T12:05:44.470Z,84.39
2017-03-02T12:06:44.504Z,84.2
2017-03-02T12:07:44.529Z,84.95
2017-03-02T12:08:44.559Z,85.05
2017-03-02T12:09:44.583Z,85.24
2017-03-02T12:10:44.621Z,84.86
2017-03-02T12:11:44.654Z,84.39
2017-03-02T12:12:44.669Z,84.1
2017-03-02T12:13:44.696Z,84.01
2017-03-02T12:14:44.726Z,84.29
2017-03-02T12:15:44.764Z,83.91
2017-03-02T12:16:44.798Z,83.72
2017-03-02T12:17:44.823Z,84.48
2017-03-02T12:18:44.830Z,84.01
2017-03-02T12:19:44.875Z,83.53
2017-03-02T12:20:44.879Z,83.72
2017-03-02T12:21:44.920Z,84.39
2017-03-02T12:22:44.969Z,84.91
2017-03-02T12:23:45.019Z,84.77
2017-03-02T12:24:45.024Z,84.72
2017-03-02T12:25:45.056Z,85.01
2017-03-02T12:26:45.073Z,85.49
2017-03-02T12:27:45.107Z,85.39
2017-03-02T12:28:45.194Z,85.96
2017-03-02T12:29:45.159Z,84.91
2017-03-02T12:30:45.190Z,85.96
2017-03-02T12:31:45.240Z,86.63
2017-03-02T12:32:45.255Z,87.57
2017-03-02T12:33:45.276Z,89.67
2017-03-02T12:34:45.309Z,90.99
2017-03-02T12:35:45.332Z,91.75
2017-03-02T12:36:45.369Z,92.94
2017-03-02T12:37:45.388Z,94.27
2017-03-02T12:38:45.423Z,95.31
2017-03-02T12:39:45.432Z,96.26
2017-03-02T12:40:45.471Z,97.5
2017-03-02T12:41:45.478Z,96.74
2017-03-02T12:42:45.531Z,95.98
2017-03-02T12:43:45.560Z,96.93
2017-03-02T12:44:45.581Z,96.26
2017-03-02T12:45:45.597Z,96.17
2017-03-02T12:46:45.630Z,96.08
2017-03-02T12:47:45.700Z,95.98
2017-03-02T12:48:45.702Z,95.51
2017-03-02T12:49:46.034Z,95.7
2017-03-02T12:50:45.735Z,95.7
2017-03-02T12:51:45.778Z,95.31
2017-03-02T12:52:45.821Z,95.31
2017-03-02T12:53:46.796Z,94.84
2017-03-02T12:54:45.978Z,94.18